Time;durP1;ratioP1;P1;durP2;ratioP2;P2;SDS_P1;SDS_P2;PMS_P1;PMS_P2;Temp;Humidity;BMP_temperature;BMP_pressure;BME280_temperature;BME280_humidity;BME280_pressure;Samples;Min_cycle;Max_cycle;Signal;HPM_P1;HPM_P2
2022/01/29 00:01:25;;;;;;;24.17;15.70;;;;;;;5.15;86.77;99744.34;4124923;28;20726;-90
2022/01/29 00:03:32;;;;;;;25.80;15.75;;;;;;;5.15;86.77;99747.78;4125173;28;20212;-90
2022/01/29 00:05:35;;;;;;;24.10;16.20;;;;;;;5.15;87.07;99741.75;4130515;28;20239;-90
2022/01/29 00:07:41;;;;;;;22.00;13.65;;;;;;;5.12;86.61;99738.41;4128633;28;20232;-91
2022/01/29 00:09:46;;;;;;;25.90;15.48;;;;;;;5.07;85.96;99740.25;4162094;28;20212;-90
2022/01/29 00:11:50;;;;;;;24.42;16.13;;;;;;;4.99;85.88;99739.50;4127508;28;20236;-90
2022/01/29 00:13:53;;;;;;;24.27;16.05;;;;;;;4.96;86.61;99753.38;4139780;28;20650;-90
2022/01/29 00:15:59;;;;;;;28.48;16.30;;;;;;;4.95;86.52;99746.50;4129855;28;20228;-90
2022/01/29 00:18:06;;;;;;;25.23;15.93;;;;;;;4.96;86.67;99745.63;4142462;28;20700;-91
2022/01/29 00:20:11;;;;;;;20.73;13.60;;;;;;;4.96;86.99;99734.41;4126959;28;20204;-90
2022/01/29 00:22:14;;;;;;;21.13;14.10;;;;;;;4.98;87.18;99740.41;4143840;28;20227;-90
2022/01/29 00:24:17;;;;;;;25.38;14.23;;;;;;;4.98;86.65;99730.06;4130552;28;20209;-90
2022/01/29 00:26:22;;;;;;;19.70;13.15;;;;;;;4.97;86.84;99730.94;4129610;28;20209;-91
2022/01/29 00:28:26;;;;;;;21.35;13.40;;;;;;;4.97;87.38;99726.63;4156299;28;20220;-90
2022/01/29 00:30:36;;;;;;;19.88;12.60;;;;;;;4.97;87.23;99721.44;4124318;28;20783;-90
2022/01/29 00:32:41;;;;;;;21.90;12.63;;;;;;;4.95;87.40;99710.31;4142415;28;20211;-90
2022/01/29 00:34:44;;;;;;;19.27;11.27;;;;;;;4.97;87.85;99718.03;4158575;28;20215;-90
2022/01/29 00:36:47;;;;;;;18.38;11.98;;;;;;;4.96;86.82;99712.00;4141916;28;20212;-90
2022/01/29 00:38:50;;;;;;;17.42;11.15;;;;;;;4.96;87.22;99698.22;4147153;28;21094;-90
2022/01/29 00:40:53;;;;;;;23.63;13.45;;;;;;;4.95;87.90;99684.47;4121777;28;20208;-90
2022/01/29 00:42:56;;;;;;;23.23;14.20;;;;;;;4.93;87.68;99690.53;4118744;28;20275;-90
2022/01/29 00:44:59;;;;;;;21.48;13.57;;;;;;;4.95;86.93;99684.47;4127423;28;20263;-90
2022/01/29 00:47:03;;;;;;;20.85;13.13;;;;;;;4.88;86.28;99690.63;4150278;28;20204;-90
2022/01/29 00:49:11;;;;;;;20.67;13.60;;;;;;;4.89;86.63;99694.09;4150779;28;20235;-89
2022/01/29 00:51:14;;;;;;;22.80;13.38;;;;;;;4.86;86.53;99688.97;4125096;28;20204;-90
2022/01/29 00:53:17;;;;;;;20.52;12.25;;;;;;;4.81;87.21;99694.22;4145683;28;20208;-90
2022/01/29 00:55:20;;;;;;;27.25;17.83;;;;;;;4.76;86.75;99697.78;4142424;28;20208;-90
2022/01/29 00:57:24;;;;;;;19.15;12.80;;;;;;;4.72;86.62;99693.53;4130295;28;20436;-90
2022/01/29 00:59:31;;;;;;;21.65;13.68;;;;;;;4.70;87.10;99690.97;4130546;28;20723;-90
2022/01/29 01:01:34;;;;;;;22.27;13.70;;;;;;;4.70;86.65;99688.41;4124564;28;20212;-90
2022/01/29 01:03:38;;;;;;;21.73;14.18;;;;;;;4.68;86.97;99687.59;4142353;28;20338;-89
2022/01/29 01:05:42;;;;;;;23.67;14.45;;;;;;;4.66;86.30;99688.53;4141530;28;20673;-90
2022/01/29 01:07:45;;;;;;;25.75;14.82;;;;;;;4.65;86.29;99681.66;4127908;28;20228;-90
2022/01/29 01:09:48;;;;;;;19.40;13.95;;;;;;;4.70;86.61;99679.81;4132069;28;20209;-90
2022/01/29 01:11:52;;;;;;;21.23;13.82;;;;;;;4.71;86.61;99681.53;4124166;28;20284;-90
2022/01/29 01:13:55;;;;;;;22.08;14.23;;;;;;;4.73;86.71;99684.91;4141228;28;20319;-90
2022/01/29 01:15:58;;;;;;;21.75;13.85;;;;;;;4.74;86.05;99684.06;4142013;28;20620;-89
2022/01/29 01:18:01;;;;;;;20.42;12.70;;;;;;;4.74;86.93;99676.28;4127470;28;20212;-90
2022/01/29 01:20:06;;;;;;;22.08;14.45;;;;;;;4.76;87.40;99670.19;4143760;28;20261;-90
2022/01/29 01:22:10;;;;;;;21.95;14.13;;;;;;;4.80;86.59;99676.19;4133333;28;20219;-90
2022/01/29 01:24:13;;;;;;;22.60;13.55;;;;;;;4.82;86.33;99671.81;4127503;28;20275;-90
2022/01/29 01:26:17;;;;;;;21.15;13.55;;;;;;;4.78;87.18;99676.19;4142562;28;20227;-90
2022/01/29 01:28:20;;;;;;;23.27;14.77;;;;;;;4.78;86.09;99683.09;4140337;28;20243;-90
2022/01/29 01:30:24;;;;;;;21.15;14.27;;;;;;;4.75;86.62;99688.31;4118020;28;22136;-89
2022/01/29 01:32:29;;;;;;;20.73;14.20;;;;;;;4.73;86.91;99690.94;4119434;28;20197;-90
2022/01/29 01:34:37;;;;;;;20.67;14.55;;;;;;;4.72;87.09;99689.25;4140162;28;20208;-89
2022/01/29 01:36:48;;;;;;;19.70;14.00;;;;;;;4.72;87.10;99704.75;4118426;28;20212;-90
2022/01/29 01:38:59;;;;;;;23.65;14.50;;;;;;;4.70;86.69;99697.91;4161108;28;20195;-90
2022/01/29 01:41:06;;;;;;;22.95;13.98;;;;;;;4.68;87.08;99694.50;4128896;28;20223;-90
2022/01/29 01:43:09;;;;;;;25.15;14.65;;;;;;;4.66;87.49;99708.31;4143514;28;20195;-90
2022/01/29 01:45:15;;;;;;;23.80;13.35;;;;;;;4.63;87.92;99708.38;4138500;28;20236;-90
2022/01/29 01:47:18;;;;;;;20.83;12.20;;;;;;;4.60;87.39;99703.25;4128595;28;20212;-90
2022/01/29 01:49:21;;;;;;;22.25;12.38;;;;;;;4.61;87.51;99705.81;4144132;28;20216;-90
2022/01/29 01:51:25;;;;;;;16.85;12.27;;;;;;;4.61;87.82;99692.06;4126835;28;20796;-90
2022/01/29 01:53:28;;;;;;;19.90;12.00;;;;;;;4.61;86.96;99699.81;4136094;28;20294;-90
2022/01/29 01:55:33;;;;;;;19.02;12.07;;;;;;;4.59;87.31;99705.00;4121770;28;20209;-89
2022/01/29 01:57:36;;;;;;;19.05;12.13;;;;;;;4.57;87.98;99688.69;4126149;28;20210;-90
2022/01/29 01:59:39;;;;;;;18.00;12.02;;;;;;;4.57;87.31;99683.53;4136140;28;20213;-90
2022/01/29 02:01:42;;;;;;;21.05;12.00;;;;;;;4.57;88.19;99677.50;4117172;28;20772;-90
2022/01/29 02:03:46;;;;;;;22.13;12.60;;;;;;;4.56;87.94;99670.66;4137480;28;20212;-90
2022/01/29 02:05:50;;;;;;;20.67;12.73;;;;;;;4.57;87.52;99664.56;4139735;28;20307;-90
2022/01/29 02:07:53;;;;;;;22.98;12.57;;;;;;;4.55;87.38;99664.59;4134081;28;20208;-90
2022/01/29 02:09:57;;;;;;;23.35;14.07;;;;;;;4.56;87.68;99661.16;4125717;28;20623;-90
2022/01/29 02:12:03;;;;;;;23.27;15.07;;;;;;;4.52;87.98;99661.25;4133300;28;20689;-90
2022/01/29 02:14:10;;;;;;;22.25;14.18;;;;;;;4.53;87.75;99656.06;4118884;28;21686;-90
2022/01/29 02:16:13;;;;;;;23.95;13.48;;;;;;;4.53;88.70;99652.63;4125253;28;20205;-90
2022/01/29 02:18:19;;;;;;;25.48;14.35;;;;;;;4.55;88.49;99646.53;4123154;28;20217;-90
2022/01/29 02:20:25;;;;;;;24.40;14.60;;;;;;;4.54;88.29;99637.09;4140746;28;20208;-90
2022/01/29 02:22:29;;;;;;;21.50;14.20;;;;;;;4.56;87.52;99639.66;4123894;28;20204;-91
2022/01/29 02:24:33;;;;;;;21.88;14.30;;;;;;;4.55;87.97;99632.78;4129256;28;20201;-90
2022/01/29 02:26:36;;;;;;;19.35;13.05;;;;;;;4.54;87.12;99626.78;4143569;28;20242;-90
2022/01/29 02:28:39;;;;;;;18.38;12.43;;;;;;;4.52;87.73;99613.00;4125565;28;20228;-90
2022/01/29 02:30:47;;;;;;;22.52;13.57;;;;;;;4.53;86.60;99621.63;4126304;28;20198;-89
2022/01/29 02:32:50;;;;;;;19.05;12.90;;;;;;;4.54;87.40;99616.44;4127899;28;20197;-89
2022/01/29 02:34:53;;;;;;;19.95;12.90;;;;;;;4.56;87.19;99626.75;4139351;28;20207;-89
2022/01/29 02:36:56;;;;;;;18.25;12.60;;;;;;;4.55;87.73;99623.28;4126810;28;20212;-88
2022/01/29 02:39:03;;;;;;;15.95;11.60;;;;;;;4.58;86.71;99612.06;4157154;28;20205;-89
2022/01/29 02:41:07;;;;;;;20.27;11.75;;;;;;;4.57;87.88;99605.16;4137499;28;20215;-89
2022/01/29 02:43:15;;;;;;;20.95;13.68;;;;;;;4.55;86.72;99600.03;4123416;28;20216;-89
2022/01/29 02:45:18;;;;;;;18.67;12.00;;;;;;;4.50;86.89;99594.13;4141161;28;20207;-88
2022/01/29 02:47:29;;;;;;;22.73;12.98;;;;;;;4.48;86.91;99590.72;4140046;28;20213;-88
2022/01/29 02:49:33;;;;;;;16.30;11.50;;;;;;;4.47;87.45;99595.94;4153214;28;20241;-88
2022/01/29 02:51:44;;;;;;;19.55;12.10;;;;;;;4.43;87.36;99581.38;4150385;28;20644;-88
2022/01/29 02:53:48;;;;;;;19.30;12.85;;;;;;;4.39;87.27;99579.72;4153430;28;20605;-89
2022/01/29 02:55:53;;;;;;;26.73;12.40;;;;;;;4.37;87.56;99582.31;4141199;28;20209;-88
2022/01/29 02:57:58;;;;;;;18.10;12.30;;;;;;;4.37;87.56;99577.16;4142669;28;20612;-91
2022/01/29 03:00:10;;;;;;;17.73;13.27;;;;;;;4.37;87.38;99564.25;4142996;28;20204;-89
2022/01/29 03:02:13;;;;;;;23.02;13.38;;;;;;;4.38;87.19;99565.13;4141654;28;20203;-89
2022/01/29 03:04:16;;;;;;;21.50;13.32;;;;;;;4.39;86.70;99562.50;4138103;28;20350;-89
2022/01/29 03:06:22;;;;;;;21.27;13.45;;;;;;;4.41;87.69;99554.75;4132122;28;20655;-89
2022/01/29 03:08:25;;;;;;;24.00;13.50;;;;;;;4.38;87.41;99550.47;4126477;28;20197;-89
2022/01/29 03:10:29;;;;;;;20.80;14.15;;;;;;;4.37;87.16;99550.50;4139936;28;20236;-89
2022/01/29 03:12:37;;;;;;;21.83;13.20;;;;;;;4.36;87.92;99549.66;4157035;28;20192;-89
2022/01/29 03:14:40;;;;;;;20.60;13.07;;;;;;;4.34;87.61;99541.09;4125184;28;20267;-89
2022/01/29 03:16:47;;;;;;;22.25;13.30;;;;;;;4.31;87.44;99540.31;4117430;28;20296;-89
2022/01/29 03:18:50;;;;;;;18.35;12.68;;;;;;;4.31;88.21;99545.47;4130035;28;20207;-89
2022/01/29 03:20:54;;;;;;;18.75;12.90;;;;;;;4.33;87.55;99543.69;4120010;28;20189;-88
2022/01/29 03:22:57;;;;;;;21.27;13.13;;;;;;;4.31;88.22;99541.16;4141897;28;20216;-89
2022/01/29 03:25:00;;;;;;;19.13;13.30;;;;;;;4.31;87.12;99543.72;4143853;28;20208;-89
2022/01/29 03:27:03;;;;;;;19.83;13.52;;;;;;;4.30;86.94;99544.63;4152220;28;20866;-89
2022/01/29 03:29:08;;;;;;;19.70;12.63;;;;;;;4.27;86.79;99547.28;4120855;28;20328;-89
2022/01/29 03:31:11;;;;;;;20.65;12.57;;;;;;;4.25;87.70;99536.13;4132924;28;20235;-88
2022/01/29 03:33:14;;;;;;;19.67;12.05;;;;;;;4.23;87.43;99540.47;4139344;28;20208;-89
2022/01/29 03:35:17;;;;;;;18.80;13.00;;;;;;;4.20;87.42;99527.63;4121134;28;20212;-89
2022/01/29 03:37:21;;;;;;;22.02;12.80;;;;;;;4.20;88.12;99525.94;4140875;28;20250;-89
2022/01/29 03:39:27;;;;;;;18.80;12.75;;;;;;;4.20;88.80;99523.34;4134908;28;20212;-89
2022/01/29 03:41:32;;;;;;;18.80;13.77;;;;;;;4.23;87.62;99522.38;4127992;28;20209;-89
2022/01/29 03:43:45;;;;;;;21.52;13.35;;;;;;;4.27;88.09;99523.19;4142378;28;20262;-88
2022/01/29 03:45:49;;;;;;;22.70;14.00;;;;;;;4.29;88.40;99532.59;4143806;28;20204;-89
2022/01/29 03:47:53;;;;;;;24.00;13.52;;;;;;;4.29;88.06;99537.75;4162033;28;20215;-89
2022/01/29 03:49:56;;;;;;;18.23;12.10;;;;;;;4.26;88.51;99536.97;4147244;28;20215;-89
2022/01/29 03:51:59;;;;;;;20.40;13.07;;;;;;;4.24;88.95;99531.84;4163836;28;20205;-89
2022/01/29 03:54:07;;;;;;;20.77;12.40;;;;;;;4.22;88.02;99525.88;4144809;28;20757;-89
2022/01/29 03:56:13;;;;;;;18.77;12.48;;;;;;;4.21;87.12;99518.16;4140942;28;20295;-89
2022/01/29 03:58:16;;;;;;;21.50;13.38;;;;;;;4.26;87.27;99511.16;4137396;28;20207;-89
2022/01/29 04:00:19;;;;;;;19.92;13.40;;;;;;;4.26;88.05;99512.00;4123633;28;20208;-89
2022/01/29 04:02:24;;;;;;;18.65;13.20;;;;;;;4.30;87.86;99507.63;4139370;28;20231;-89
2022/01/29 04:04:27;;;;;;;20.90;13.98;;;;;;;4.32;87.35;99500.72;4121258;28;20237;-89
2022/01/29 04:06:31;;;;;;;23.85;14.40;;;;;;;4.36;87.78;99510.94;4140856;28;20295;-89
2022/01/29 04:08:40;;;;;;;21.13;13.00;;;;;;;4.39;88.30;99508.28;4141644;28;20200;-89
2022/01/29 04:10:43;;;;;;;21.92;14.00;;;;;;;4.40;88.52;99507.38;4157088;28;20226;-89
2022/01/29 04:12:50;;;;;;;21.10;13.55;;;;;;;4.42;88.79;99502.19;4123510;28;20246;-89
2022/01/29 04:14:54;;;;;;;18.55;13.48;;;;;;;4.44;88.21;99503.03;4128344;28;20213;-89
2022/01/29 04:16:57;;;;;;;19.27;13.20;;;;;;;4.43;88.17;99509.91;4127683;28;20209;-89
2022/01/29 04:19:02;;;;;;;18.70;12.93;;;;;;;4.45;87.89;99505.59;4129235;28;20209;-89
2022/01/29 04:21:05;;;;;;;22.70;13.75;;;;;;;4.46;87.79;99509.84;4159391;28;20213;-89
2022/01/29 04:23:10;;;;;;;19.20;12.77;;;;;;;4.46;87.71;99509.84;4164294;28;20219;-90
2022/01/29 04:25:16;;;;;;;20.83;13.00;;;;;;;4.47;88.07;99511.56;4130073;28;20207;-89
2022/01/29 04:27:23;;;;;;;21.30;13.10;;;;;;;4.46;87.83;99504.69;4145262;28;20222;-89
2022/01/29 04:29:28;;;;;;;23.45;12.95;;;;;;;4.45;87.37;99497.84;4127302;28;20212;-89
2022/01/29 04:31:41;;;;;;;21.33;14.65;;;;;;;4.45;87.92;99503.00;4143596;28;20208;-89
2022/01/29 04:33:45;;;;;;;20.50;13.00;;;;;;;4.46;88.61;99501.25;4123617;28;20205;-90
2022/01/29 04:35:50;;;;;;;21.95;13.55;;;;;;;4.47;88.74;99497.81;4161178;28;20305;-89
2022/01/29 04:37:53;;;;;;;20.02;13.52;;;;;;;4.47;87.34;99498.63;4139807;28;20692;-90
2022/01/29 04:39:56;;;;;;;23.60;14.65;;;;;;;4.47;87.25;99488.31;4126385;28;20697;-90
2022/01/29 04:42:00;;;;;;;21.15;14.48;;;;;;;4.51;88.23;99492.53;4124983;28;20259;-90
2022/01/29 04:44:03;;;;;;;23.67;14.23;;;;;;;4.53;88.12;99495.09;4142976;28;20536;-90
2022/01/29 04:46:06;;;;;;;22.27;14.45;;;;;;;4.55;87.27;99494.16;4127331;28;20240;-89
2022/01/29 04:48:10;;;;;;;17.67;12.50;;;;;;;4.57;87.96;99488.94;4132360;28;20197;-90
2022/01/29 04:50:16;;;;;;;21.00;13.75;;;;;;;4.57;88.42;99499.28;4120318;28;20256;-89
2022/01/29 04:52:20;;;;;;;22.33;14.00;;;;;;;4.55;88.11;99509.63;4137272;28;20558;-90
2022/01/29 04:54:24;;;;;;;21.02;13.40;;;;;;;4.57;87.73;99512.19;4115836;28;20217;-90
2022/01/29 04:56:28;;;;;;;23.27;14.10;;;;;;;4.57;87.95;99514.78;4142438;28;20232;-89
2022/01/29 04:58:34;;;;;;;23.35;14.77;;;;;;;4.57;88.71;99522.53;4126101;28;20269;-90
2022/01/29 05:00:37;;;;;;;22.33;13.60;;;;;;;4.59;87.64;99526.78;4157588;28;20290;-89
2022/01/29 05:02:41;;;;;;;22.85;14.07;;;;;;;4.60;88.84;99533.66;4127217;28;20205;-89
2022/01/29 05:04:44;;;;;;;22.90;14.80;;;;;;;4.62;87.64;99533.63;4142033;28;20208;-89
2022/01/29 05:06:47;;;;;;;21.42;12.93;;;;;;;4.61;87.80;99527.59;4123906;28;20214;-89
2022/01/29 05:08:52;;;;;;;20.40;13.20;;;;;;;4.58;88.27;99525.06;4128907;28;20272;-90
2022/01/29 05:10:57;;;;;;;19.65;12.57;;;;;;;4.55;87.76;99526.88;4155350;28;20286;-90
2022/01/29 05:13:04;;;;;;;19.88;13.32;;;;;;;4.57;88.55;99533.72;4130947;28;20221;-89
2022/01/29 05:15:14;;;;;;;20.23;14.25;;;;;;;4.58;88.19;99530.25;4126617;28;21138;-89
2022/01/29 05:26:53;;;;;;;20.17;14.45;;;;;;;4.66;88.25;99533.53;4141926;28;20209;-89
2022/01/29 05:28:56;;;;;;;25.10;16.77;;;;;;;4.69;88.16;99531.72;4132787;28;20201;-90
2022/01/29 05:31:00;;;;;;;26.70;16.00;;;;;;;4.64;88.72;99519.78;4142804;28;20216;-89
2022/01/29 05:33:03;;;;;;;28.65;16.35;;;;;;;4.63;88.14;99523.25;4130076;28;20210;-89
2022/01/29 05:35:07;;;;;;;24.80;15.70;;;;;;;4.63;88.92;99522.38;4153613;28;20200;-89
2022/01/29 05:37:19;;;;;;;26.35;15.55;;;;;;;4.61;88.08;99508.66;4140420;28;20272;-89
2022/01/29 05:39:25;;;;;;;25.48;16.55;;;;;;;4.65;88.54;99502.56;4125413;28;20218;-89
2022/01/29 05:41:30;;;;;;;27.83;17.90;;;;;;;4.63;88.71;99499.13;4157390;28;20199;-89
2022/01/29 05:43:33;;;;;;;26.85;16.05;;;;;;;4.62;88.97;99506.06;4142628;28;20196;-89
2022/01/29 05:45:37;;;;;;;28.02;16.02;;;;;;;4.65;88.04;99513.72;4146484;28;20679;-89
2022/01/29 05:47:40;;;;;;;25.95;15.77;;;;;;;4.68;88.20;99511.09;4145798;28;20204;-89
2022/01/29 05:49:43;;;;;;;24.60;16.15;;;;;;;4.68;87.73;99516.25;4126806;28;20209;-89
2022/01/29 05:51:46;;;;;;;23.38;15.88;;;;;;;4.66;87.57;99507.69;4126855;28;20211;-89
2022/01/29 05:53:49;;;;;;;22.70;15.40;;;;;;;4.65;88.70;99493.06;4127724;28;20717;-89
2022/01/29 05:55:53;;;;;;;26.00;15.10;;;;;;;4.62;88.84;99493.13;4155128;28;20210;-88
2022/01/29 05:57:57;;;;;;;25.73;15.70;;;;;;;4.60;88.06;99482.00;4140655;28;20236;-89
2022/01/29 06:00:00;;;;;;;24.52;14.35;;;;;;;4.62;87.75;99495.72;4140453;28;20287;-89
2022/01/29 06:02:04;;;;;;;27.25;15.00;;;;;;;4.63;88.34;99492.25;4121893;28;20597;-89
2022/01/29 06:04:10;;;;;;;23.60;15.07;;;;;;;4.63;87.68;99505.19;4127943;28;20352;-89
2022/01/29 06:06:13;;;;;;;21.73;13.73;;;;;;;4.60;88.24;99502.66;4130009;28;20213;-89
2022/01/29 06:08:16;;;;;;;24.02;14.10;;;;;;;4.56;87.08;99503.59;4126871;28;20243;-89
2022/01/29 06:10:20;;;;;;;23.27;14.13;;;;;;;4.56;87.00;99502.75;4126761;28;20567;-89
2022/01/29 06:12:23;;;;;;;21.35;13.10;;;;;;;4.60;88.00;99501.78;4144482;28;20602;-89
2022/01/29 06:14:30;;;;;;;18.45;12.07;;;;;;;4.53;86.99;99501.09;4126675;28;20216;-89
2022/01/29 06:16:33;;;;;;;19.88;12.52;;;;;;;4.45;87.41;99486.63;4118467;28;20208;-89
2022/01/29 06:18:37;;;;;;;20.48;13.55;;;;;;;4.45;87.74;99491.78;4140165;28;20296;-89
2022/01/29 06:20:41;;;;;;;19.15;12.50;;;;;;;4.54;87.74;99492.47;4139058;28;20265;-89
2022/01/29 06:22:44;;;;;;;18.60;11.85;;;;;;;4.52;87.45;99483.03;4126269;28;20231;-89
2022/01/29 06:24:47;;;;;;;19.80;12.35;;;;;;;4.50;87.03;99500.31;4125302;28;20212;-89
2022/01/29 06:26:50;;;;;;;20.75;12.45;;;;;;;4.46;87.73;99503.84;4121607;28;20209;-89
2022/01/29 06:28:53;;;;;;;20.52;12.27;;;;;;;4.50;87.49;99508.06;4141598;28;20193;-89
2022/01/29 06:30:59;;;;;;;20.15;12.35;;;;;;;4.47;86.99;99516.72;4125934;28;20235;-89
2022/01/29 06:33:10;;;;;;;19.23;12.00;;;;;;;4.45;86.98;99513.31;4125039;28;20201;-90
2022/01/29 06:35:14;;;;;;;19.40;11.90;;;;;;;4.49;87.26;99514.94;4122422;28;21016;-89
2022/01/29 06:37:20;;;;;;;17.60;11.07;;;;;;;4.49;87.50;99512.34;4142374;28;20299;-89
2022/01/29 06:39:25;;;;;;;17.98;11.63;;;;;;;4.55;87.71;99519.13;4122397;28;20247;-90
2022/01/29 06:41:28;;;;;;;17.70;11.35;;;;;;;4.55;87.44;99516.56;4142730;28;20631;-89
2022/01/29 06:43:31;;;;;;;20.25;11.52;;;;;;;4.57;87.90;99512.19;4127678;28;20509;-89
2022/01/29 06:45:35;;;;;;;18.95;11.07;;;;;;;4.57;87.40;99515.66;4141750;28;20889;-89
2022/01/29 06:47:40;;;;;;;20.65;11.57;;;;;;;4.51;87.79;99517.50;4141041;28;20220;-89
2022/01/29 06:49:43;;;;;;;20.58;11.52;;;;;;;4.51;87.60;99502.88;4117503;28;20216;-89
2022/01/29 06:51:46;;;;;;;19.30;11.35;;;;;;;4.57;87.50;99514.78;4130267;28;20284;-89
2022/01/29 06:53:49;;;;;;;17.70;11.68;;;;;;;4.57;86.81;99507.91;4132106;28;20259;-89
2022/01/29 06:55:52;;;;;;;19.33;11.18;;;;;;;4.58;87.98;99511.31;4128970;28;20189;-89
2022/01/29 06:57:57;;;;;;;23.83;11.25;;;;;;;4.55;86.94;99494.16;4126161;28;20291;-89
2022/01/29 07:00:20;;;;;;;19.02;11.32;;;;;;;4.60;87.25;99494.03;4155369;28;20212;-89
2022/01/29 07:02:23;;;;;;;16.70;10.95;;;;;;;4.64;88.11;99488.78;4138901;28;20226;-88
2022/01/29 07:04:28;;;;;;;16.42;10.23;;;;;;;4.68;87.39;99484.41;4132868;28;20223;-87
2022/01/29 07:06:31;;;;;;;17.13;11.32;;;;;;;4.71;87.02;99490.34;4124811;28;20602;-91
2022/01/29 07:08:37;;;;;;;18.38;11.63;;;;;;;4.74;87.93;99490.28;4119254;28;20215;-87
2022/01/29 07:10:41;;;;;;;23.20;11.70;;;;;;;4.69;86.26;99486.94;4152588;28;20270;-88
2022/01/29 07:12:44;;;;;;;19.33;11.75;;;;;;;4.69;87.30;99489.50;4125754;28;20267;-85
2022/01/29 07:14:49;;;;;;;22.25;12.30;;;;;;;4.71;86.75;99486.03;4139443;28;20675;-85
2022/01/29 07:16:52;;;;;;;18.67;11.77;;;;;;;4.78;87.06;99491.88;4123491;28;20208;-85
2022/01/29 07:18:55;;;;;;;19.27;13.10;;;;;;;4.76;87.00;99499.66;4136850;28;20300;-87
2022/01/29 07:21:00;;;;;;;18.95;12.27;;;;;;;4.80;86.60;99508.22;4141636;28;20609;-87
2022/01/29 07:23:09;;;;;;;18.60;12.13;;;;;;;4.85;86.43;99512.38;4155750;28;20241;-87
2022/01/29 07:25:15;;;;;;;17.13;10.90;;;;;;;4.87;86.54;99502.00;4141067;28;20277;-87
2022/01/29 07:27:18;;;;;;;22.35;12.98;;;;;;;4.90;86.14;99504.53;4124321;28;20212;-87
2022/01/29 07:29:21;;;;;;;20.27;12.05;;;;;;;4.88;86.63;99501.97;4156699;28;20406;-86
2022/01/29 07:31:24;;;;;;;20.55;12.80;;;;;;;4.90;86.54;99495.06;4141228;28;20235;-86
2022/01/29 07:33:28;;;;;;;21.60;12.57;;;;;;;4.89;86.68;99485.59;4132224;28;20296;-86
2022/01/29 07:35:31;;;;;;;18.83;12.15;;;;;;;4.94;86.89;99482.91;4143646;28;20200;-86
2022/01/29 07:37:35;;;;;;;20.45;12.82;;;;;;;4.96;86.00;99482.00;4144772;28;20220;-86
2022/01/29 07:39:38;;;;;;;20.20;12.10;;;;;;;4.97;86.52;99488.00;4148131;28;20231;-86
2022/01/29 07:41:41;;;;;;;17.83;12.30;;;;;;;4.97;85.60;99488.00;4158525;28;20618;-86
2022/01/29 07:43:45;;;;;;;20.27;12.82;;;;;;;4.99;86.48;99486.22;4154586;28;20206;-87
2022/01/29 07:45:48;;;;;;;25.65;14.38;;;;;;;5.01;86.12;99481.88;4125912;28;20209;-86
2022/01/29 07:47:54;;;;;;;22.83;13.50;;;;;;;5.00;86.59;99477.59;4128807;28;20313;-87
2022/01/29 07:49:57;;;;;;;20.35;13.20;;;;;;;5.03;87.00;99477.50;4140870;28;20324;-86
2022/01/29 07:52:00;;;;;;;22.85;14.10;;;;;;;5.05;85.95;99476.59;4137481;28;20639;-86
2022/01/29 07:54:05;;;;;;;19.65;13.25;;;;;;;4.96;85.95;99466.50;4126101;28;20201;-86
2022/01/29 07:56:09;;;;;;;19.08;13.65;;;;;;;4.96;86.17;99478.53;4146444;28;20405;-86
2022/01/29 07:58:12;;;;;;;21.83;13.82;;;;;;;4.86;85.80;99477.91;4157776;28;20229;-86
2022/01/29 08:00:16;;;;;;;22.45;13.63;;;;;;;4.82;86.16;99465.94;4140514;28;20212;-86
2022/01/29 08:02:19;;;;;;;22.83;14.95;;;;;;;4.77;86.83;99464.38;4145800;28;20203;-86
2022/01/29 08:04:24;;;;;;;23.15;14.65;;;;;;;4.66;86.98;99463.78;4137705;28;20212;-86
2022/01/29 08:06:29;;;;;;;27.35;14.70;;;;;;;4.62;88.13;99464.72;4139832;28;20212;-87
2022/01/29 08:08:36;;;;;;;24.77;15.30;;;;;;;4.59;87.86;99461.38;4126701;28;20208;-86
2022/01/29 08:10:41;;;;;;;24.23;14.70;;;;;;;4.59;87.72;99458.78;4137003;28;20200;-86
2022/01/29 08:12:44;;;;;;;25.17;15.75;;;;;;;4.59;87.43;99459.63;4142918;28;20259;-86
2022/01/29 08:14:47;;;;;;;24.42;16.08;;;;;;;4.56;87.64;99444.19;4121884;28;20226;-86
2022/01/29 08:16:50;;;;;;;25.50;16.48;;;;;;;4.56;88.35;99446.78;4155093;28;20286;-86
2022/01/29 08:18:53;;;;;;;26.58;17.27;;;;;;;4.56;87.81;99444.19;4153264;28;20208;-86
2022/01/29 08:20:56;;;;;;;27.77;18.00;;;;;;;4.60;87.74;99435.50;4131440;28;20651;-86
2022/01/29 08:23:00;;;;;;;29.17;18.63;;;;;;;4.65;87.50;99438.81;4142158;28;20684;-86
2022/01/29 08:25:04;;;;;;;28.58;19.35;;;;;;;4.69;87.01;99446.47;4139027;28;20217;-86
2022/01/29 08:27:09;;;;;;;30.67;18.65;;;;;;;4.70;87.46;99445.56;4131920;28;20201;-86
2022/01/29 08:29:12;;;;;;;27.65;18.52;;;;;;;4.73;87.94;99449.81;4140089;28;20208;-86
2022/01/29 08:31:15;;;;;;;26.15;17.38;;;;;;;4.81;87.68;99450.47;4147036;28;20219;-86
2022/01/29 08:33:20;;;;;;;25.98;17.20;;;;;;;4.88;87.91;99449.44;4124849;28;20307;-86
2022/01/29 08:35:23;;;;;;;26.50;15.75;;;;;;;4.95;87.44;99449.28;4146526;28;20254;-86
2022/01/29 08:37:26;;;;;;;24.92;16.50;;;;;;;5.01;87.05;99445.69;4146544;28;20608;-87
2022/01/29 08:39:29;;;;;;;24.13;16.05;;;;;;;5.06;87.47;99443.84;4147405;28;20204;-86
2022/01/29 08:41:34;;;;;;;23.00;14.70;;;;;;;5.11;87.06;99440.22;4133413;28;20213;-87
2022/01/29 08:43:39;;;;;;;23.73;14.88;;;;;;;5.14;86.37;99438.44;4142862;28;20252;-87
2022/01/29 08:45:43;;;;;;;26.60;17.10;;;;;;;5.15;86.11;99434.94;4137745;28;20212;-86
2022/01/29 08:47:49;;;;;;;22.08;14.15;;;;;;;5.19;86.85;99434.00;4137785;28;20287;-86
2022/01/29 08:49:52;;;;;;;22.95;14.95;;;;;;;5.21;86.48;99437.38;4124269;28;20212;-86
2022/01/29 08:51:58;;;;;;;23.47;14.40;;;;;;;5.23;85.99;99427.88;4159893;28;20562;-86
2022/01/29 08:54:01;;;;;;;22.20;14.70;;;;;;;5.26;85.96;99432.97;4126383;28;21217;-87
2022/01/29 08:56:05;;;;;;;24.15;14.65;;;;;;;5.29;86.31;99424.25;4136731;28;20747;-88
2022/01/29 08:58:08;;;;;;;19.80;13.45;;;;;;;5.29;85.99;99430.28;4142005;28;20200;-88
2022/01/29 09:00:14;;;;;;;22.98;14.35;;;;;;;5.33;86.39;99424.13;4123247;28;20212;-87
2022/01/29 09:02:18;;;;;;;21.20;14.50;;;;;;;5.37;85.89;99438.69;4148847;28;20227;-88
2022/01/29 09:04:21;;;;;;;23.48;15.00;;;;;;;5.38;86.18;99430.06;4141130;28;20244;-87
2022/01/29 09:06:24;;;;;;;23.45;15.77;;;;;;;5.42;85.71;99426.47;4157807;28;20291;-87
2022/01/29 09:08:27;;;;;;;23.70;15.05;;;;;;;5.50;85.74;99436.63;4129059;28;20206;-87
2022/01/29 09:10:33;;;;;;;22.85;15.25;;;;;;;5.55;86.01;99416.63;4132112;28;20289;-89
2022/01/29 09:12:36;;;;;;;23.55;15.35;;;;;;;5.59;85.51;99434.63;4136820;28;20236;-89
2022/01/29 09:14:44;;;;;;;21.67;14.90;;;;;;;5.62;84.97;99430.22;4129207;28;20217;-88
2022/01/29 09:16:51;;;;;;;25.67;15.73;;;;;;;5.66;85.25;99429.25;4143164;28;20204;-88
2022/01/29 09:18:54;;;;;;;23.02;15.40;;;;;;;5.71;85.03;99424.81;4147277;28;20731;-89
2022/01/29 09:20:58;;;;;;;21.73;15.07;;;;;;;5.75;85.34;99423.00;4127737;28;20619;-89
2022/01/29 09:23:02;;;;;;;20.90;14.18;;;;;;;5.80;84.85;99421.13;4132351;28;20201;-90
2022/01/29 09:25:14;;;;;;;19.35;13.32;;;;;;;5.83;84.57;99416.72;4131373;28;20255;-91
2022/01/29 09:27:17;;;;;;;19.20;13.00;;;;;;;5.88;84.73;99419.16;4137297;28;20223;-89
2022/01/29 09:29:22;;;;;;;24.40;14.90;;;;;;;5.92;84.52;99424.22;4144638;28;20680;-91
2022/01/29 09:31:25;;;;;;;24.55;15.05;;;;;;;5.96;84.29;99425.00;4144751;28;20732;-91
2022/01/29 09:33:30;;;;;;;17.33;12.02;;;;;;;5.99;83.97;99414.53;4129891;28;20744;-92
2022/01/29 09:35:33;;;;;;;18.00;11.40;;;;;;;6.02;84.09;99415.28;4143976;28;20223;-90
2022/01/29 09:37:38;;;;;;;14.73;10.85;;;;;;;5.98;82.56;99408.50;4131780;28;20205;-96
2022/01/29 09:39:45;;;;;;;17.70;11.02;;;;;;;6.02;83.27;99410.13;4142413;28;20201;-94
2022/01/29 09:41:50;;;;;;;26.88;18.20;;;;;;;6.07;83.26;99403.06;4121133;28;20720;-93
2022/01/29 09:43:58;;;;;;;14.25;9.73;;;;;;;6.11;82.72;99402.91;4141534;28;20650;-95
2022/01/29 09:46:02;;;;;;;15.73;9.75;;;;;;;6.12;82.03;99399.44;4155023;28;20241;-91
2022/01/29 09:48:06;;;;;;;16.30;10.18;;;;;;;6.14;82.23;99400.22;4138267;28;20205;-89